Time;durP1;ratioP1;P1;durP2;ratioP2;P2;SDS_P1;SDS_P2;PMS_P1;PMS_P2;Temp;Humidity;BMP_temperature;BMP_pressure;BME280_temperature;BME280_humidity;BME280_pressure;Samples;Min_cycle;Max_cycle;Signal;HPM_P1;HPM_P2
2023/04/28 00:04:00;;;;;;;;;;;;;;;11.44;46.91;99940.63;4998330;28;19929;-93
2023/04/28 00:06:25;;;;;;;;;;;;;;;11.52;46.65;99940.53;5010614;28;20411;-94
2023/04/28 00:08:53;;;;;;;;;;;;;;;11.49;46.31;99936.16;4978231;28;19933;-96
2023/04/28 00:11:18;;;;;;;;;;;;;;;11.46;45.46;99941.47;4980006;28;19931;-96
2023/04/28 00:13:50;;;;;;;;;;;;;;;11.43;46.08;99944.16;4991949;28;20392;-96
2023/04/28 00:17:08;;;;;;;;;;;;;;;11.53;45.85;99945.78;5105467;23;19908;-96
2023/04/28 00:19:54;;;;;;;;;;;;;;;11.75;46.07;99940.16;5106758;28;19920;-96
2023/04/28 00:22:20;;;;;;;;;;;;;;;11.56;46.56;99940.44;5100698;28;19923;-96
2023/04/28 00:24:46;;;;;;;;;;;;;;;11.34;46.38;99944.28;5092061;28;19916;-93
2023/04/28 00:27:11;;;;;;;;;;;;;;;11.52;46.30;99943.16;5091337;28;19919;-95
2023/04/28 00:29:37;;;;;;;;;;;;;;;11.51;45.32;99952.88;5078633;28;19916;-94
2023/04/28 00:32:03;;;;;;;;;;;;;;;11.33;45.47;99938.16;5087192;28;19916;-94
2023/04/28 00:34:32;;;;;;;;;;;;;;;11.10;45.88;99941.97;5076684;28;20387;-92
2023/04/28 00:36:58;;;;;;;;;;;;;;;11.38;46.08;99948.66;5080811;28;20610;-91
2023/04/28 00:39:24;;;;;;;;;;;;;;;11.68;45.98;99949.06;5071217;28;19919;-94
2023/04/28 00:41:50;;;;;;;;;;;;;;;11.70;46.70;99942.88;5071626;28;20356;-94
2023/04/28 00:44:15;;;;;;;;;;;;;;;11.78;46.90;99942.75;5070879;28;20003;-92
2023/04/28 00:50:16;;;;;;;;;;;;;;;11.37;47.44;99949.53;5059313;28;20087;-95
2023/04/28 00:52:45;;;;;;;;;;;;;;;11.18;47.29;99941.00;5061797;28;19927;-96
2023/04/28 00:59:03;;;;;;;;;;;;;;;;;;;;;
2023/04/28 01:04:16;;;;;;;;;;;;;;;10.99;48.43;99943.00;5091231;23;20009;-96
2023/04/28 01:06:46;;;;;;;;;;;;;;;10.87;47.99;99950.16;5074355;28;20013;-95
2023/04/28 01:09:20;;;;;;;;;;;;;;;10.88;47.75;99938.72;5080233;28;19912;-96
2023/04/28 01:12:07;;;;;;;;;;;;;;;10.77;48.01;99943.28;5074850;28;19912;-93
2023/04/28 01:14:37;;;;;;;;;;;;;;;10.72;48.81;99947.72;5085802;28;19916;-96
2023/04/28 01:17:16;;;;;;;;;;;;;;;10.54;48.25;99944.41;5229420;22;19920;-93
2023/04/28 01:19:42;;;;;;;;;;;;;;;10.55;49.26;99937.34;5087492;28;19932;-96
2023/04/28 01:22:31;;;;;;;;;;;;;;;10.38;48.06;99945.47;5066819;28;19923;-95
2023/04/28 01:27:47;;;;;;;;;;;;;;;10.32;49.08;99941.09;5123343;22;19904;-96
2023/04/28 01:30:18;;;;;;;;;;;;;;;10.20;49.09;99936.81;5178068;22;19943;-96
2023/04/28 01:35:49;;;;;;;;;;;;;;;10.21;49.59;99935.94;5074953;28;19928;-96
2023/04/28 01:38:16;;;;;;;;;;;;;;;10.17;49.66;99947.38;5086410;28;19917;-96
2023/04/28 01:40:46;;;;;;;;;;;;;;;10.17;49.16;99941.25;5084852;28;19938;-96
2023/04/28 01:43:14;;;;;;;;;;;;;;;10.16;49.54;99943.00;5065615;28;19912;-95
2023/04/28 01:46:07;;;;;;;;;;;;;;;10.14;50.51;99938.63;5086898;28;19927;-95
2023/04/28 01:48:33;;;;;;;;;;;;;;;9.98;50.62;99940.53;5069862;28;19956;-94
2023/04/28 01:51:35;;;;;;;;;;;;;;;9.74;50.42;99937.19;5078480;28;19919;-96
2023/04/28 02:00:09;;;;;;;;;;;;;;;9.65;50.92;99937.28;5266066;22;19927;-93
2023/04/28 02:02:35;;;;;;;;;;;;;;;9.83;50.80;99937.13;5087165;28;19916;-94
2023/04/28 02:05:31;;;;;;;;;;;;;;;9.82;50.84;99940.69;5079434;28;19901;-95
2023/04/28 02:13:30;;;;;;;;;;;;;;;9.82;50.91;99950.31;5270987;22;19955;-96
2023/04/28 02:15:55;;;;;;;;;;;;;;;9.88;51.32;99949.41;5073908;28;19916;-94
2023/04/28 02:18:21;;;;;;;;;;;;;;;9.62;51.35;99950.47;5073755;28;19916;-94
2023/04/28 02:21:07;;;;;;;;;;;;;;;9.45;52.06;99945.31;5057346;28;20046;-93
2023/04/28 02:23:33;;;;;;;;;;;;;;;9.45;50.68;99951.47;5077574;28;19912;-96
2023/04/28 02:29:29;;;;;;;;;;;;;;;9.42;50.85;99947.97;5091073;28;20361;-93
2023/04/28 02:38:10;;;;;;;;;;;;;;;9.12;50.75;99953.38;4990290;28;19921;-92
2023/04/28 02:40:39;;;;;;;;;;;;;;;9.05;51.42;99948.16;4957423;28;20368;-93
2023/04/28 02:43:04;;;;;;;;;;;;;;;9.15;50.37;99955.13;4986206;28;20021;-94
2023/04/28 02:45:33;;;;;;;;;;;;;;;9.17;50.08;99952.50;4973988;28;19996;-92
2023/04/28 02:48:18;;;;;;;;;;;;;;;9.11;50.22;99959.56;4991327;28;20529;-96
2023/04/28 02:50:49;;;;;;;;;;;;;;;9.16;50.75;99956.00;4979820;28;19914;-96
2023/04/28 02:53:32;;;;;;;;;;;;;;;9.18;50.48;99970.06;4981918;28;19918;-96
2023/04/28 02:56:07;;;;;;;;;;;;;;;9.08;49.93;99971.84;4981979;28;20339;-95
2023/04/28 02:58:48;;;;;;;;;;;;;;;9.21;50.55;99973.53;4963469;28;19918;-93
2023/04/28 03:04:47;;;;;;;;;;;;;;;9.14;49.65;99988.50;4989831;28;19933;-95
2023/04/28 03:10:02;;;;;;;;;;;;;;;9.26;49.05;99986.69;5012876;28;19921;-93
2023/04/28 03:12:28;;;;;;;;;;;;;;;9.28;48.82;99988.44;5012552;28;20024;-91
2023/04/28 03:14:55;;;;;;;;;;;;;;;9.29;48.20;99999.81;5016154;28;19925;-96
2023/04/28 03:17:21;;;;;;;;;;;;;;;9.42;48.48;99995.34;5018411;28;20034;-96
2023/04/28 03:20:03;;;;;;;;;;;;;;;9.51;47.79;100005.84;5009654;28;19909;-95
2023/04/28 03:22:31;;;;;;;;;;;;;;;9.22;48.20;100014.78;4984389;28;19917;-96
2023/04/28 03:25:18;;;;;;;;;;;;;;;9.17;48.18;100015.66;4994485;28;20313;-93
2023/04/28 03:27:46;;;;;;;;;;;;;;;9.14;48.59;100024.44;5012693;28;19995;-93
2023/04/28 03:30:50;;;;;;;;;;;;;;;9.07;48.44;100028.00;5012758;28;19913;-92
2023/04/28 03:33:18;;;;;;;;;;;;;;;9.07;48.40;100031.50;5016065;28;20379;-96
2023/04/28 03:35:55;;;;;;;;;;;;;;;9.27;48.71;100041.94;5054214;22;19967;-93
2023/04/28 03:44:26;;;;;;;;;;;;;;;9.59;47.58;100050.56;5889382;22;19918;-96
2023/04/28 03:46:58;;;;;;;;;;;;;;;9.22;47.21;100030.56;5117319;27;19984;-91
2023/04/28 03:58:52;;;;;;;;;;;;;;;9.23;48.98;100074.41;5136122;27;20367;-95
2023/04/28 04:04:15;;;;;;;;;;;;;;;9.34;48.33;100073.53;5125857;27;19922;-94
2023/04/28 04:09:47;;;;;;;;;;;;;;;9.35;47.42;100085.81;5122000;27;19960;-93
2023/04/28 04:12:31;;;;;;;;;;;;;;;9.35;47.81;100091.94;5095131;28;19922;-94
2023/04/28 04:14:56;;;;;;;;;;;;;;;9.53;47.28;100091.00;5119178;27;19916;-94
2023/04/28 04:17:21;;;;;;;;;;;;;;;9.56;46.74;100092.72;5116294;27;19918;-95
2023/04/28 04:19:48;;;;;;;;;;;;;;;9.54;46.63;100090.09;5116153;27;19996;-93
2023/04/28 04:22:23;;;;;;;;;;;;;;;9.81;46.76;100097.00;5101257;28;19915;-91
2023/04/28 04:24:48;;;;;;;;;;;;;;;9.70;46.47;100096.19;5113867;28;19911;-94
2023/04/28 04:27:13;;;;;;;;;;;;;;;9.80;47.13;100100.50;5080746;28;20019;-93
2023/04/28 04:29:39;;;;;;;;;;;;;;;9.74;46.17;100097.03;5099410;27;19911;-95
2023/04/28 04:32:04;;;;;;;;;;;;;;;9.88;46.50;100096.97;5115249;27;20410;-93
2023/04/28 04:34:29;;;;;;;;;;;;;;;9.99;45.83;100097.75;5109963;28;19912;-95
2023/04/28 04:36:56;;;;;;;;;;;;;;;10.08;45.51;100094.22;5115224;28;20373;-95
2023/04/28 04:39:21;;;;;;;;;;;;;;;10.01;45.15;100096.88;5123697;27;20393;-92
2023/04/28 04:41:48;;;;;;;;;;;;;;;9.99;44.74;100096.03;5125047;27;19911;-95
2023/04/28 04:44:16;;;;;;;;;;;;;;;10.28;45.57;100101.97;5097853;27;19919;-92
2023/04/28 04:46:42;;;;;;;;;;;;;;;10.41;45.08;100100.16;5105224;28;19915;-94
2023/04/28 04:49:07;;;;;;;;;;;;;;;10.30;45.21;100111.63;5095035;28;19923;-95
2023/04/28 04:51:42;;;;;;;;;;;;;;;10.27;45.22;100116.03;5095276;28;19969;-89
2023/04/28 04:54:38;;;;;;;;;;;;;;;10.32;44.48;100115.13;5114285;28;19911;-95
2023/04/28 04:57:12;;;;;;;;;;;;;;;10.56;45.77;100127.25;5124930;27;19915;-92
2023/04/28 04:59:41;;;;;;;;;;;;;;;10.60;45.59;100127.25;5099281;27;20487;-92
2023/04/28 05:02:13;;;;;;;;;;;;;;;10.85;44.25;100130.56;5105319;28;19916;-92
2023/04/28 05:04:45;;;;;;;;;;;;;;;10.86;44.74;100129.66;5137667;27;19926;-91
2023/04/28 05:07:11;;;;;;;;;;;;;;;10.81;43.17;100134.97;5121873;27;19918;-93
2023/04/28 05:09:44;;;;;;;;;;;;;;;10.98;45.06;100137.47;5116912;27;19915;-95
2023/04/28 05:12:28;;;;;;;;;;;;;;;10.99;44.49;100130.44;5104512;28;20357;-93
2023/04/28 05:14:58;;;;;;;;;;;;;;;10.85;44.07;100136.72;5117109;27;19911;-92
2023/04/28 05:17:23;;;;;;;;;;;;;;;10.99;43.48;100141.00;5113344;27;20345;-87
2023/04/28 05:19:51;;;;;;;;;;;;;;;11.22;42.93;100136.34;5131547;27;19968;-87
2023/04/28 05:22:17;;;;;;;;;;;;;;;11.37;43.37;100142.34;5131642;27;19918;-90
2023/04/28 05:24:42;;;;;;;;;;;;;;;11.16;42.26;100144.34;5112012;28;19998;-94
2023/04/28 05:27:08;;;;;;;;;;;;;;;11.38;43.18;100146.75;5126656;27;19915;-94
2023/04/28 05:29:34;;;;;;;;;;;;;;;11.49;43.51;100146.63;5096825;28;19915;-95
2023/04/28 05:32:03;;;;;;;;;;;;;;;11.45;41.94;100148.44;5102664;28;19912;-94
2023/04/28 05:34:30;;;;;;;;;;;;;;;11.37;42.08;100152.91;5093771;28;19916;-90
2023/04/28 05:36:59;;;;;;;;;;;;;;;11.40;41.92;100150.22;5096983;28;19915;-92
2023/04/28 05:39:25;;;;;;;;;;;;;;;11.69;41.67;100155.19;5120267;28;19923;-89
2023/04/28 05:41:51;;;;;;;;;;;;;;;11.72;41.41;100147.22;5112846;28;19911;-91
2023/04/28 05:44:17;;;;;;;;;;;;;;;11.64;40.59;100154.38;5114521;28;19972;-95
2023/04/28 05:46:45;;;;;;;;;;;;;;;11.81;41.82;100157.66;5114113;28;19927;-91
2023/04/28 05:49:11;;;;;;;;;;;;;;;12.02;41.86;100150.41;5093523;28;19915;-95
2023/04/28 05:51:37;;;;;;;;;;;;;;;12.00;41.46;100162.75;5086910;28;19942;-93
2023/04/28 05:54:05;;;;;;;;;;;;;;;12.55;41.25;100158.44;5082214;28;19916;-94
2023/04/28 05:56:37;;;;;;;;;;;;;;;12.53;39.99;100166.41;5076161;28;20003;-90
2023/04/28 05:59:06;;;;;;;;;;;;;;;12.12;40.18;100169.66;5090484;28;20340;-88
2023/04/28 06:01:32;;;;;;;;;;;;;;;12.10;40.61;100167.03;5105291;28;19916;-91
2023/04/28 06:03:57;;;;;;;;;;;;;;;12.10;39.38;100174.97;5080298;28;20304;-90
2023/04/28 06:06:23;;;;;;;;;;;;;;;12.06;40.03;100175.88;5081275;28;19927;-88
2023/04/28 06:08:51;;;;;;;;;;;;;;;12.46;40.21;100174.47;5071441;28;19912;-85
2023/04/28 06:11:18;;;;;;;;;;;;;;;12.97;39.83;100177.16;5092175;28;19923;-94
2023/04/28 06:13:44;;;;;;;;;;;;;;;13.10;39.15;100174.28;5091820;28;19930;-89
2023/04/28 06:16:09;;;;;;;;;;;;;;;13.22;37.97;100179.38;5102900;28;19941;-91
2023/04/28 06:18:34;;;;;;;;;;;;;;;13.42;38.04;100187.88;5095154;28;20308;-89
2023/04/28 06:21:00;;;;;;;;;;;;;;;13.10;37.09;100187.53;5113630;28;19922;-87
2023/04/28 06:23:25;;;;;;;;;;;;;;;13.07;37.74;100180.53;5108876;28;20314;-93
2023/04/28 06:25:50;;;;;;;;;;;;;;;13.05;37.51;100191.16;5075900;28;19912;-91
2023/04/28 06:28:16;;;;;;;;;;;;;;;13.00;39.07;100193.00;5093697;28;19912;-93
2023/04/28 06:30:41;;;;;;;;;;;;;;;13.10;38.27;100187.53;5075896;28;20400;-90
2023/04/28 06:33:06;;;;;;;;;;;;;;;13.18;37.87;100193.59;5076116;28;19970;-92
2023/04/28 06:35:35;;;;;;;;;;;;;;;13.29;39.57;100185.44;5075455;28;19953;-94
2023/04/28 06:38:01;;;;;;;;;;;;;;;14.07;39.25;100180.38;5091698;28;20006;-93
2023/04/28 06:40:26;;;;;;;;;;;;;;;14.53;37.82;100189.97;5076885;28;19955;-95
2023/04/28 06:42:51;;;;;;;;;;;;;;;14.37;36.30;100183.28;5093866;28;19912;-93
2023/04/28 06:45:17;;;;;;;;;;;;;;;14.65;36.66;100184.38;5095759;28;19941;-96
2023/04/28 06:47:42;;;;;;;;;;;;;;;14.40;35.97;100184.06;5088145;28;20387;-93
2023/04/28 06:50:09;;;;;;;;;;;;;;;14.54;35.23;100193.50;5078667;28;19916;-95
2023/04/28 06:52:35;;;;;;;;;;;;;;;14.55;35.86;100195.22;5085649;28;19923;-94
2023/04/28 06:55:00;;;;;;;;;;;;;;;14.83;34.91;100188.41;5079920;28;19935;-95
2023/04/28 06:57:25;;;;;;;;;;;;;;;14.93;35.44;100189.03;5084244;28;19912;-89
2023/04/28 06:59:51;;;;;;;;;;;;;;;15.45;34.38;100191.25;5114380;28;19912;-89
2023/04/28 07:02:16;;;;;;;;;;;;;;;15.91;35.72;100190.84;5096152;28;19998;-89
2023/04/28 07:04:41;;;;;;;;;;;;;;;16.18;33.09;100190.94;5095788;28;19966;-90
2023/04/28 07:07:07;;;;;;;;;;;;;;;16.23;34.85;100191.66;5095399;28;19912;-91
2023/04/28 07:09:35;;;;;;;;;;;;;;;16.27;33.16;100190.66;5095999;28;20015;-90
2023/04/28 07:12:01;;;;;;;;;;;;;;;15.60;35.48;100192.59;5093848;28;19911;-91
2023/04/28 07:14:26;;;;;;;;;;;;;;;16.06;35.57;100186.84;5074964;28;19919;-91
2023/04/28 07:16:51;;;;;;;;;;;;;;;16.83;35.97;100189.78;5092719;28;19912;-91
2023/04/28 07:19:17;;;;;;;;;;;;;;;17.83;34.63;100180.13;5101869;28;19912;-92
2023/04/28 07:21:43;;;;;;;;;;;;;;;18.22;32.67;100186.69;5096533;28;19955;-91
2023/04/28 07:24:09;;;;;;;;;;;;;;;17.81;31.96;100186.41;5112731;28;19912;-90
2023/04/28 07:26:34;;;;;;;;;;;;;;;17.22;31.74;100187.66;5113469;28;19993;-93
2023/04/28 07:29:00;;;;;;;;;;;;;;;16.90;31.46;100189.59;5086384;28;19916;-90
2023/04/28 07:31:26;;;;;;;;;;;;;;;16.87;31.46;100193.25;5092921;28;19962;-90
2023/04/28 07:33:51;;;;;;;;;;;;;;;16.67;30.82;100185.88;5056971;28;19959;-95
2023/04/28 07:36:16;;;;;;;;;;;;;;;17.30;31.18;100189.13;5092537;28;19912;-88
2023/04/28 07:38:42;;;;;;;;;;;;;;;17.94;30.11;100182.41;5091281;28;19916;-90
2023/04/28 07:41:07;;;;;;;;;;;;;;;18.20;30.60;100181.41;5092682;28;20342;-93
2023/04/28 07:43:33;;;;;;;;;;;;;;;17.83;30.25;100181.91;5094388;28;19977;-92
2023/04/28 07:45:58;;;;;;;;;;;;;;;17.62;30.85;100183.56;5091795;28;19916;-91
2023/04/28 07:48:23;;;;;;;;;;;;;;;18.03;29.82;100176.72;5092600;28;19916;-90
2023/04/28 07:50:49;;;;;;;;;;;;;;;17.93;30.43;100175.31;5091697;28;19912;-88
2023/04/28 07:53:14;;;;;;;;;;;;;;;17.68;30.42;100183.34;5091221;28;19920;-91
2023/04/28 07:55:43;;;;;;;;;;;;;;;18.15;30.03;100163.81;5092544;28;20270;-90
2023/04/28 07:58:09;;;;;;;;;;;;;;;18.82;30.62;100167.41;5092645;28;19984;-90
2023/04/28 08:00:34;;;;;;;;;;;;;;;18.54;31.28;100176.56;5092860;28;20376;-91
2023/04/28 08:03:00;;;;;;;;;;;;;;;18.63;32.34;100161.94;5092487;28;19949;-90
2023/04/28 08:05:25;;;;;;;;;;;;;;;18.61;32.27;100170.00;5090985;28;20379;-90
2023/04/28 08:07:51;;;;;;;;;;;;;;;19.02;32.80;100162.13;5105143;28;19911;-89
2023/04/28 08:10:16;;;;;;;;;;;;;;;19.56;31.91;100156.22;5112694;28;20416;-89
2023/04/28 08:12:41;;;;;;;;;;;;;;;19.44;28.75;100155.81;5112600;28;20316;-90
2023/04/28 08:15:08;;;;;;;;;;;;;;;19.39;30.89;100163.19;5111128;28;19915;-88
2023/04/28 08:17:34;;;;;;;;;;;;;;;19.03;31.14;100162.97;5112727;28;19923;-89
2023/04/28 08:19:59;;;;;;;;;;;;;;;18.81;32.19;100160.31;5111962;28;19912;-89
2023/04/28 08:22:24;;;;;;;;;;;;;;;19.16;31.27;100152.63;5110976;28;19911;-90
2023/04/28 08:24:50;;;;;;;;;;;;;;;18.84;33.17;100155.69;5111181;28;19919;-89
2023/04/28 08:27:15;;;;;;;;;;;;;;;19.06;33.21;100154.81;5111990;28;19911;-88
2023/04/28 08:29:41;;;;;;;;;;;;;;;18.62;31.65;100158.41;5112692;28;19919;-89
2023/04/28 08:32:06;;;;;;;;;;;;;;;18.47;31.63;100149.19;5112169;28;19926;-89
2023/04/28 08:34:32;;;;;;;;;;;;;;;18.15;34.01;100142.47;5112046;28;20428;-89
2023/04/28 08:36:57;;;;;;;;;;;;;;;18.31;32.77;100146.28;5112596;28;19911;-89
2023/04/28 08:39:25;;;;;;;;;;;;;;;18.78;32.94;100148.81;5111580;28;19919;-91
2023/04/28 08:41:50;;;;;;;;;;;;;;;18.40;31.78;100137.91;5110963;28;19912;-90
2023/04/28 08:44:16;;;;;;;;;;;;;;;18.05;35.31;100140.16;5111953;28;19916;-87
2023/04/28 08:46:42;;;;;;;;;;;;;;;17.99;32.79;100139.53;5112048;28;19916;-89
2023/04/28 08:49:12;;;;;;;;;;;;;;;17.84;35.09;100128.50;5112513;28;19927;-88
2023/04/28 08:51:43;;;;;;;;;;;;;;;18.47;32.63;100133.16;5112129;28;19914;-88
2023/04/28 08:54:10;;;;;;;;;;;;;;;18.40;33.25;100127.22;5111546;28;20438;-88
2023/04/28 08:56:35;;;;;;;;;;;;;;;18.72;33.10;100143.75;5111748;28;19969;-89
2023/04/28 08:59:01;;;;;;;;;;;;;;;18.96;33.39;100130.28;5111728;28;20354;-89
2023/04/28 09:01:26;;;;;;;;;;;;;;;19.03;33.44;100128.22;5111410;28;19960;-88
2023/04/28 09:03:53;;;;;;;;;;;;;;;18.96;32.95;100127.63;5111829;28;19912;-93
2023/04/28 09:06:18;;;;;;;;;;;;;;;18.84;32.35;100125.44;5109550;28;20533;-88
2023/04/28 09:08:43;;;;;;;;;;;;;;;18.85;32.51;100122.72;5093959;28;20026;-90
2023/04/28 09:11:10;;;;;;;;;;;;;;;18.80;34.34;100124.72;5109273;28;19966;-88
2023/04/28 09:13:35;;;;;;;;;;;;;;;18.30;34.07;100119.63;5110037;28;19911;-88
2023/04/28 09:16:01;;;;;;;;;;;;;;;18.61;34.60;100124.59;5101552;28;19930;-87
2023/04/28 09:18:30;;;;;;;;;;;;;;;18.37;34.13;100115.81;5087908;28;20339;-87
2023/04/28 09:21:04;;;;;;;;;;;;;;;18.68;33.54;100122.56;5110088;28;20002;-89
2023/04/28 09:23:29;;;;;;;;;;;;;;;18.81;34.99;100109.53;5110483;28;20320;-87
2023/04/28 09:25:56;;;;;;;;;;;;;;;18.60;34.19;100107.69;5096551;28;19923;-89
2023/04/28 09:28:22;;;;;;;;;;;;;;;18.06;36.89;100109.88;5093216;28;19931;-89
2023/04/28 09:30:47;;;;;;;;;;;;;;;18.07;34.70;100108.06;5090767;28;19919;-89
2023/04/28 09:33:12;;;;;;;;;;;;;;;17.59;35.70;100109.00;5090971;28;19959;-88
2023/04/28 09:35:42;;;;;;;;;;;;;;;17.86;36.37;100112.44;5093311;28;20448;-89
2023/04/28 09:38:08;;;;;;;;;;;;;;;18.31;34.13;100106.22;5093143;28;19922;-88
2023/04/28 09:40:48;;;;;;;;;;;;;;;18.82;37.10;100105.94;5098599;28;20023;-89
2023/04/28 09:43:42;;;;;;;;;;;;;;;18.87;33.95;100102.16;5108311;28;19959;-90
2023/04/28 09:46:07;;;;;;;;;;;;;;;19.31;33.18;100095.81;5010364;28;19928;-90
2023/04/28 09:48:34;;;;;;;;;;;;;;;19.73;31.99;100089.41;5027710;28;19917;-90
2023/04/28 09:51:01;;;;;;;;;;;;;;;19.33;32.24;100086.75;5027854;28;19909;-90
2023/04/28 09:53:28;;;;;;;;;;;;;;;19.27;32.26;100080.81;5031525;28;19986;-90
2023/04/28 09:55:54;;;;;;;;;;;;;;;19.12;32.23;100079.69;5032112;28;20032;-93
2023/04/28 09:58:21;;;;;;;;;;;;;;;19.20;32.63;100096.28;5031708;28;19967;-89
2023/04/28 10:00:53;;;;;;;;;;;;;;;18.51;33.27;100052.00;5031883;28;19960;-90
2023/04/28 10:03:23;;;;;;;;;;;;;;;18.65;34.36;100071.91;5031808;28;19945;-89
2023/04/28 10:05:50;;;;;;;;;;;;;;;18.50;32.29;100068.09;5031764;28;20023;-90
2023/04/28 10:08:15;;;;;;;;;;;;;;;18.86;33.04;100075.47;5031663;28;19913;-90
2023/04/28 10:10:42;;;;;;;;;;;;;;;18.47;32.41;100073.56;5031970;28;19962;-91
2023/04/28 10:13:08;;;;;;;;;;;;;;;18.99;33.22;100057.13;5043054;28;19924;-87
2023/04/28 10:15:34;;;;;;;;;;;;;;;19.00;32.01;100056.16;5043586;28;19916;-87
2023/04/28 10:18:01;;;;;;;;;;;;;;;18.94;31.89;100065.34;5042906;28;19913;-92
2023/04/28 10:20:28;;;;;;;;;;;;;;;18.29;32.86;100059.16;5038660;28;19913;-87
2023/04/28 10:23:16;;;;;;;;;;;;;;;18.67;32.30;100057.53;5080557;28;19916;-88
2023/04/28 10:25:41;;;;;;;;;;;;;;;18.52;32.93;100060.84;5108002;28;19933;-89
2023/04/28 10:28:07;;;;;;;;;;;;;;;18.50;32.44;100052.06;5108075;28;19971;-90
2023/04/28 10:30:33;;;;;;;;;;;;;;;18.44;32.98;100053.16;5093707;28;19908;-90
2023/04/28 10:33:05;;;;;;;;;;;;;;;17.91;32.83;100049.09;5092236;28;20016;-92
2023/04/28 10:35:31;;;;;;;;;;;;;;;18.01;33.19;100049.59;5093378;28;19908;-92
2023/04/28 10:38:07;;;;;;;;;;;;;;;18.53;33.24;100046.56;5093022;28;19916;-90
2023/04/28 10:40:47;;;;;;;;;;;;;;;18.45;33.82;100038.88;5093328;28;19927;-91
2023/04/28 10:43:14;;;;;;;;;;;;;;;18.59;32.32;100038.31;5105267;28;19968;-89
2023/04/28 10:45:51;;;;;;;;;;;;;;;18.61;32.72;100036.44;5114090;28;19996;-93
2023/04/28 10:48:17;;;;;;;;;;;;;;;18.43;30.94;100022.94;5113570;28;19972;-90
2023/04/28 10:51:01;;;;;;;;;;;;;;;18.33;32.09;100031.41;5114654;28;20354;-91
2023/04/28 10:53:47;;;;;;;;;;;;;;;18.48;33.25;100032.56;5113579;28;19923;-91
2023/04/28 10:56:18;;;;;;;;;;;;;;;18.66;31.24;100029.09;5082007;28;19938;-91
2023/04/28 10:58:50;;;;;;;;;;;;;;;18.69;30.20;100023.63;5114069;28;19911;-90
2023/04/28 11:01:23;;;;;;;;;;;;;;;18.56;33.27;100027.75;5095282;28;19912;-94
2023/04/28 11:03:50;;;;;;;;;;;;;;;18.56;31.81;100035.75;5094498;28;19964;-92
2023/04/28 11:06:34;;;;;;;;;;;;;;;18.67;30.62;100027.28;5113270;28;19912;-95
2023/04/28 11:09:00;;;;;;;;;;;;;;;18.67;31.08;100027.28;5095650;28;19912;-91
2023/04/28 11:11:30;;;;;;;;;;;;;;;18.93;32.26;100029.72;5113315;28;19960;-91
2023/04/28 11:14:15;;;;;;;;;;;;;;;19.61;30.51;100020.41;5095304;28;20006;-90
2023/04/28 11:16:58;;;;;;;;;;;;;;;19.98;29.26;100032.06;5113023;28;19912;-90
2023/04/28 11:19:27;;;;;;;;;;;;;;;19.72;30.21;100028.78;5113958;28;19919;-90
2023/04/28 11:21:56;;;;;;;;;;;;;;;19.24;31.80;100024.81;5113498;28;19912;-89
2023/04/28 11:24:26;;;;;;;;;;;;;;;18.91;31.37;100025.41;5095307;28;19919;-88
2023/04/28 11:26:52;;;;;;;;;;;;;;;18.56;31.52;100014.41;5113354;28;20013;-90
2023/04/28 11:29:29;;;;;;;;;;;;;;;19.23;32.95;100023.94;5095199;28;19918;-91
2023/04/28 11:32:41;;;;;;;;;;;;;;;19.57;30.25;100005.44;5113561;28;20002;-90
2023/04/28 11:35:51;;;;;;;;;;;;;;;;;;;;;
2023/04/28 11:38:17;;;;;;;;;;;;;;;19.75;32.43;100015.28;5030309;28;19927;-89
2023/04/28 11:41:10;;;;;;;;;;;;;;;19.42;29.01;100009.72;5030100;28;20015;-91
2023/04/28 11:43:39;;;;;;;;;;;;;;;19.72;32.55;100003.84;5010014;28;20395;-90
2023/04/28 11:46:09;;;;;;;;;;;;;;;19.70;29.39;100000.41;5020011;28;19924;-88
2023/04/28 11:48:50;;;;;;;;;;;;;;;19.21;29.88;100007.09;5029499;28;19964;-88
2023/04/28 11:51:31;;;;;;;;;;;;;;;18.76;30.40;100001.03;5029788;28;20378;-88
2023/04/28 11:53:57;;;;;;;;;;;;;;;18.58;31.10;99997.38;5030079;28;19917;-88
2023/04/28 11:59:42;;;;;;;;;;;;;;;19.30;31.29;99995.09;5009867;28;19914;-90
2023/04/28 12:02:07;;;;;;;;;;;;;;;19.14;30.69;99986.94;5009753;28;19920;-86
2023/04/28 12:04:37;;;;;;;;;;;;;;;18.64;31.16;99988.22;5009402;28;19921;-88
2023/04/28 12:07:05;;;;;;;;;;;;;;;18.79;31.11;99984.84;5009154;28;19917;-89
2023/04/28 12:09:31;;;;;;;;;;;;;;;18.57;30.63;99989.44;5009306;28;19914;-89
2023/04/28 12:11:58;;;;;;;;;;;;;;;18.60;30.82;99975.94;5025378;28;20409;-90
2023/04/28 12:14:24;;;;;;;;;;;;;;;18.70;31.55;99979.91;5028871;28;19945;-88
2023/04/28 12:16:49;;;;;;;;;;;;;;;18.22;32.48;99973.09;5029204;28;19999;-87
2023/04/28 12:19:15;;;;;;;;;;;;;;;18.70;31.88;99971.06;5028609;28;20404;-89
2023/04/28 12:21:41;;;;;;;;;;;;;;;18.91;31.26;99966.59;5028972;28;20357;-86
2023/04/28 12:24:16;;;;;;;;;;;;;;;18.94;30.50;99964.63;5029905;28;19913;-90
2023/04/28 12:26:41;;;;;;;;;;;;;;;18.90;30.54;99960.34;5028531;28;20425;-88
2023/04/28 12:29:25;;;;;;;;;;;;;;;18.62;30.56;99950.00;5029114;28;19913;-88
2023/04/28 12:31:51;;;;;;;;;;;;;;;18.57;31.53;99952.03;5029037;28;20429;-90
2023/04/28 12:34:17;;;;;;;;;;;;;;;18.87;30.21;99944.47;5077013;28;19912;-87
2023/04/28 12:36:45;;;;;;;;;;;;;;;19.02;29.90;99944.72;5092027;28;19922;-87
2023/04/28 12:39:15;;;;;;;;;;;;;;;19.41;29.87;99938.44;5091593;28;20409;-89
2023/04/28 12:41:40;;;;;;;;;;;;;;;19.90;29.52;99933.41;5091776;28;19912;-89
2023/04/28 12:44:11;;;;;;;;;;;;;;;19.33;29.62;99928.09;5091599;28;19915;-86
2023/04/28 12:46:36;;;;;;;;;;;;;;;18.81;29.42;99925.13;5091094;28;19916;-89
2023/04/28 12:49:02;;;;;;;;;;;;;;;19.10;30.87;99922.00;5091362;28;19982;-90
2023/04/28 12:51:28;;;;;;;;;;;;;;;18.98;30.09;99921.72;5091460;28;20006;-89
2023/04/28 12:53:53;;;;;;;;;;;;;;;19.41;29.98;99915.22;5091380;28;19962;-89
2023/04/28 12:56:19;;;;;;;;;;;;;;;19.33;29.42;99912.91;5092087;28;19912;-90
2023/04/28 12:58:44;;;;;;;;;;;;;;;19.23;28.75;99910.75;5091575;28;20255;-90
2023/04/28 13:01:09;;;;;;;;;;;;;;;19.55;29.97;99898.50;5091273;28;19962;-90
2023/04/28 13:03:35;;;;;;;;;;;;;;;19.64;30.21;99907.88;5090765;28;19969;-90
2023/04/28 13:06:03;;;;;;;;;;;;;;;19.62;27.99;99893.72;5091752;28;19928;-89
2023/04/28 13:08:32;;;;;;;;;;;;;;;19.11;29.61;99910.41;5091050;28;20362;-90
2023/04/28 13:10:58;;;;;;;;;;;;;;;19.07;29.11;99892.75;5091493;28;19908;-89
2023/04/28 13:13:23;;;;;;;;;;;;;;;19.09;28.97;99895.34;5072865;28;19980;-89
2023/04/28 13:15:49;;;;;;;;;;;;;;;19.31;30.38;99890.72;5090405;28;20003;-89
2023/04/28 13:18:15;;;;;;;;;;;;;;;19.42;30.39;99884.00;5091481;28;19934;-89
2023/04/28 13:20:41;;;;;;;;;;;;;;;19.53;29.77;99873.63;5090828;28;20390;-89
2023/04/28 13:23:16;;;;;;;;;;;;;;;19.87;29.24;99880.00;5090992;28;19919;-88
2023/04/28 13:25:49;;;;;;;;;;;;;;;19.31;29.82;99876.50;5091268;28;19915;-88
2023/04/28 13:28:15;;;;;;;;;;;;;;;19.46;29.17;99875.75;5091084;28;19969;-89
2023/04/28 13:30:40;;;;;;;;;;;;;;;19.72;30.33;99864.69;5095350;28;19915;-89
2023/04/28 13:33:05;;;;;;;;;;;;;;;19.80;27.92;99868.75;5110536;28;20341;-87
2023/04/28 13:35:34;;;;;;;;;;;;;;;19.85;28.79;99865.84;5112019;28;20327;-91
2023/04/28 13:38:20;;;;;;;;;;;;;;;19.91;28.29;99868.22;5099338;28;19965;-90
2023/04/28 13:41:08;;;;;;;;;;;;;;;;;;;;;
2023/04/28 13:43:35;;;;;;;;;;;;;;;19.83;28.08;99865.03;5126478;28;19969;-95
2023/04/28 13:46:00;;;;;;;;;;;;;;;19.83;28.44;99860.59;5101951;28;19989;-92
2023/04/28 13:48:26;;;;;;;;;;;;;;;19.81;29.18;99854.41;5109559;28;19916;-91
2023/04/28 13:50:52;;;;;;;;;;;;;;;20.23;29.17;99854.09;5129349;28;19911;-88
2023/04/28 13:53:17;;;;;;;;;;;;;;;19.93;29.13;99860.97;5116172;28;19916;-91
2023/04/28 13:55:44;;;;;;;;;;;;;;;19.66;27.68;99853.38;5109759;28;19916;-91
2023/04/28 13:58:09;;;;;;;;;;;;;;;19.68;28.14;99854.16;5073113;28;19916;-91
2023/04/28 14:00:36;;;;;;;;;;;;;;;19.71;29.12;99857.59;5094946;28;19915;-91
2023/04/28 14:03:02;;;;;;;;;;;;;;;19.81;28.73;99848.22;5101994;28;19923;-90
2023/04/28 14:05:27;;;;;;;;;;;;;;;19.82;28.92;99852.63;5091715;28;20281;-91
2023/04/28 14:07:53;;;;;;;;;;;;;;;20.03;27.76;99848.84;5109993;28;19931;-90